sensor_id;sensor_type;location;lat;lon;timestamp;pressure;altitude;pressure_sealevel;temperature;humidity
73143;BME280;61343;53.694;9.988;2022-07-06T00:02:13;101882.69;;;14.62;77.25
73143;BME280;61343;53.694;9.988;2022-07-06T00:04:38;101892.44;;;14.63;77.44
73143;BME280;61343;53.694;9.988;2022-07-06T00:07:03;101891.41;;;14.64;77.30
73143;BME280;61343;53.694;9.988;2022-07-06T00:09:28;101890.56;;;14.70;77.28
73143;BME280;61343;53.694;9.988;2022-07-06T00:11:54;101886.03;;;14.64;77.47
73143;BME280;61343;53.694;9.988;2022-07-06T00:14:19;101887.66;;;14.71;76.98
73143;BME280;61343;53.694;9.988;2022-07-06T00:16:44;101891.00;;;14.67;77.79
73143;BME280;61343;53.694;9.988;2022-07-06T00:19:10;101891.59;;;14.69;77.47
73143;BME280;61343;53.694;9.988;2022-07-06T00:21:35;101895.13;;;14.63;77.47
73143;BME280;61343;53.694;9.988;2022-07-06T00:24:00;101896.81;;;14.57;77.97
73143;BME280;61343;53.694;9.988;2022-07-06T00:26:26;101892.69;;;14.55;78.26
73143;BME280;61343;53.694;9.988;2022-07-06T00:28:51;101896.81;;;14.57;77.89
73143;BME280;61343;53.694;9.988;2022-07-06T00:31:16;101891.00;;;14.53;77.95
73143;BME280;61343;53.694;9.988;2022-07-06T00:33:41;101895.38;;;14.48;78.08
73143;BME280;61343;53.694;9.988;2022-07-06T00:36:07;101893.72;;;14.53;77.85
73143;BME280;61343;53.694;9.988;2022-07-06T00:38:32;101891.84;;;14.47;78.24
73143;BME280;61343;53.694;9.988;2022-07-06T00:40:58;101889.34;;;14.52;78.23
73143;BME280;61343;53.694;9.988;2022-07-06T00:43:23;101884.41;;;14.49;78.45
73143;BME280;61343;53.694;9.988;2022-07-06T00:45:48;101886.03;;;14.57;77.96
73143;BME280;61343;53.694;9.988;2022-07-06T00:48:13;101876.53;;;14.55;77.67
73143;BME280;61343;53.694;9.988;2022-07-06T00:50:39;101877.78;;;14.52;77.75
73143;BME280;61343;53.694;9.988;2022-07-06T00:53:06;101883.59;;;14.49;77.84
73143;BME280;61343;53.694;9.988;2022-07-06T00:55:37;101884.00;;;14.46;78.13
73143;BME280;61343;53.694;9.988;2022-07-06T00:58:07;101883.78;;;14.41;78.21
73143;BME280;61343;53.694;9.988;2022-07-06T01:00:33;101886.47;;;14.41;77.88
73143;BME280;61343;53.694;9.988;2022-07-06T01:02:59;101884.84;;;14.46;77.70
73143;BME280;61343;53.694;9.988;2022-07-06T01:05:24;101900.59;;;14.43;78.13
73143;BME280;61343;53.694;9.988;2022-07-06T01:07:51;101892.69;;;14.41;77.89
73143;BME280;61343;53.694;9.988;2022-07-06T01:10:18;101887.94;;;14.43;77.52
73143;BME280;61343;53.694;9.988;2022-07-06T01:12:45;101892.69;;;14.41;78.08
73143;BME280;61343;53.694;9.988;2022-07-06T01:15:15;101882.34;;;14.45;77.62
73143;BME280;61343;53.694;9.988;2022-07-06T01:17:42;101876.56;;;14.41;77.88
73143;BME280;61343;53.694;9.988;2022-07-06T01:20:13;101893.53;;;14.35;77.72
73143;BME280;61343;53.694;9.988;2022-07-06T01:22:39;101892.72;;;14.35;77.60
73143;BME280;61343;53.694;9.988;2022-07-06T01:25:05;101886.91;;;14.38;77.53
73143;BME280;61343;53.694;9.988;2022-07-06T01:27:31;101887.13;;;14.36;77.47
73143;BME280;61343;53.694;9.988;2022-07-06T01:29:59;101898.31;;;14.33;77.64
73143;BME280;61343;53.694;9.988;2022-07-06T01:32:24;101890.00;;;14.35;77.39
73143;BME280;61343;53.694;9.988;2022-07-06T01:34:50;101883.19;;;14.32;77.36
73143;BME280;61343;53.694;9.988;2022-07-06T01:37:15;101886.28;;;14.36;77.67
73143;BME280;61343;53.694;9.988;2022-07-06T01:39:40;101875.34;;;14.37;77.10
73143;BME280;61343;53.694;9.988;2022-07-06T01:42:05;101879.66;;;14.38;77.02
73143;BME280;61343;53.694;9.988;2022-07-06T01:44:31;101885.03;;;14.38;76.48
73143;BME280;61343;53.694;9.988;2022-07-06T01:46:56;101882.34;;;14.38;76.43
73143;BME280;61343;53.694;9.988;2022-07-06T01:49:21;101888.16;;;14.35;76.19
73143;BME280;61343;53.694;9.988;2022-07-06T01:51:47;101885.03;;;14.32;76.67
73143;BME280;61343;53.694;9.988;2022-07-06T01:54:12;101905.53;;;14.26;77.67
73143;BME280;61343;53.694;9.988;2022-07-06T01:56:37;101894.34;;;14.29;78.09
73143;BME280;61343;53.694;9.988;2022-07-06T01:59:03;101900.19;;;14.20;78.60
73143;BME280;61343;53.694;9.988;2022-07-06T02:01:28;101895.25;;;13.90;80.05
73143;BME280;61343;53.694;9.988;2022-07-06T02:03:53;101893.56;;;13.83;80.77
73143;BME280;61343;53.694;9.988;2022-07-06T02:06:18;101899.75;;;13.70;80.98
73143;BME280;61343;53.694;9.988;2022-07-06T02:08:44;101895.41;;;13.76;79.71
73143;BME280;61343;53.694;9.988;2022-07-06T02:11:10;101895.63;;;13.68;79.69
73143;BME280;61343;53.694;9.988;2022-07-06T02:13:36;101888.59;;;13.54;80.83
73143;BME280;61343;53.694;9.988;2022-07-06T02:16:02;101886.09;;;13.46;81.16
73143;BME280;61343;53.694;9.988;2022-07-06T02:18:27;101877.00;;;13.40;81.20
73143;BME280;61343;53.694;9.988;2022-07-06T02:20:53;101877.00;;;13.53;81.33
73143;BME280;61343;53.694;9.988;2022-07-06T02:23:18;101878.25;;;13.51;81.12
73143;BME280;61343;53.694;9.988;2022-07-06T02:25:43;101879.06;;;13.51;80.59
73143;BME280;61343;53.694;9.988;2022-07-06T02:28:09;101874.94;;;13.49;79.52
73143;BME280;61343;53.694;9.988;2022-07-06T02:30:34;101880.31;;;13.49;80.11
73143;BME280;61343;53.694;9.988;2022-07-06T02:32:59;101887.72;;;13.47;79.69
73143;BME280;61343;53.694;9.988;2022-07-06T02:35:25;101885.69;;;13.49;80.08
73143;BME280;61343;53.694;9.988;2022-07-06T02:37:50;101883.41;;;13.46;79.99
73143;BME280;61343;53.694;9.988;2022-07-06T02:40:15;101887.72;;;13.47;81.17
73143;BME280;61343;53.694;9.988;2022-07-06T02:42:41;101875.56;;;13.51;82.19
73143;BME280;61343;53.694;9.988;2022-07-06T02:45:07;101872.88;;;13.51;81.30
73143;BME280;61343;53.694;9.988;2022-07-06T02:47:32;101876.16;;;13.53;80.70
73143;BME280;61343;53.694;9.988;2022-07-06T02:49:58;101871.03;;;13.58;81.86
73143;BME280;61343;53.694;9.988;2022-07-06T02:52:23;101869.97;;;13.59;80.52
73143;BME280;61343;53.694;9.988;2022-07-06T02:54:48;101865.25;;;13.61;80.67
73143;BME280;61343;53.694;9.988;2022-07-06T02:57:15;101869.16;;;13.65;80.91
73143;BME280;61343;53.694;9.988;2022-07-06T02:59:40;101862.94;;;13.64;80.62
73143;BME280;61343;53.694;9.988;2022-07-06T03:02:07;101865.03;;;13.62;80.72
73143;BME280;61343;53.694;9.988;2022-07-06T03:04:32;101858.81;;;13.62;80.24
73143;BME280;61343;53.694;9.988;2022-07-06T03:06:58;101867.53;;;13.64;80.60
73143;BME280;61343;53.694;9.988;2022-07-06T03:09:23;101874.13;;;13.68;80.93
73143;BME280;61343;53.694;9.988;2022-07-06T03:11:49;101872.47;;;13.67;80.67
73143;BME280;61343;53.694;9.988;2022-07-06T03:14:14;101879.09;;;13.71;79.69
73143;BME280;61343;53.694;9.988;2022-07-06T03:16:39;101877.03;;;13.66;81.46
73143;BME280;61343;53.694;9.988;2022-07-06T03:19:05;101879.69;;;13.73;79.60
73143;BME280;61343;53.694;9.988;2022-07-06T03:21:31;101883.63;;;13.77;80.64
73143;BME280;61343;53.694;9.988;2022-07-06T03:23:56;101878.06;;;13.78;80.30
73143;BME280;61343;53.694;9.988;2022-07-06T03:26:21;101883.44;;;13.78;79.80
73143;BME280;61343;53.694;9.988;2022-07-06T03:28:47;101885.31;;;13.78;80.09
73143;BME280;61343;53.694;9.988;2022-07-06T03:31:12;101885.31;;;13.78;80.00
73143;BME280;61343;53.694;9.988;2022-07-06T03:33:38;101881.56;;;13.79;79.97
73143;BME280;61343;53.694;9.988;2022-07-06T03:36:03;101877.84;;;13.80;79.69
73143;BME280;61343;53.694;9.988;2022-07-06T03:38:30;101881.38;;;13.80;80.41
73143;BME280;61343;53.694;9.988;2022-07-06T03:40:55;101886.94;;;13.85;79.12
73143;BME280;61343;53.694;9.988;2022-07-06T03:43:20;101888.59;;;13.86;79.33
73143;BME280;61343;53.694;9.988;2022-07-06T03:45:45;101886.94;;;13.79;80.32
73143;BME280;61343;53.694;9.988;2022-07-06T03:48:11;101889.84;;;13.84;79.60
73143;BME280;61343;53.694;9.988;2022-07-06T03:50:36;101885.31;;;13.84;80.10
73143;BME280;61343;53.694;9.988;2022-07-06T03:53:01;101890.47;;;13.86;80.05
73143;BME280;61343;53.694;9.988;2022-07-06T03:55:27;101895.84;;;13.86;79.91
73143;BME280;61343;53.694;9.988;2022-07-06T03:57:52;101896.25;;;13.83;79.97
73143;BME280;61343;53.694;9.988;2022-07-06T04:00:17;101901.63;;;13.83;80.96
73143;BME280;61343;53.694;9.988;2022-07-06T04:02:43;101900.59;;;13.77;81.74
73143;BME280;61343;53.694;9.988;2022-07-06T04:05:08;101894.19;;;13.72;82.23
73143;BME280;61343;53.694;9.988;2022-07-06T04:07:34;101896.88;;;13.72;83.16
73143;BME280;61343;53.694;9.988;2022-07-06T04:09:59;101899.38;;;13.67;83.36
73143;BME280;61343;53.694;9.988;2022-07-06T04:12:24;101901.41;;;13.65;84.22
73143;BME280;61343;53.694;9.988;2022-07-06T04:14:50;101889.03;;;13.64;84.05
73143;BME280;61343;53.694;9.988;2022-07-06T04:17:15;101887.56;;;13.68;84.69
73143;BME280;61343;53.694;9.988;2022-07-06T04:19:58;101893.75;;;13.62;84.95
73143;BME280;61343;53.694;9.988;2022-07-06T04:22:24;101889.81;;;13.64;84.59
73143;BME280;61343;53.694;9.988;2022-07-06T04:24:49;101886.94;;;13.66;84.05
73143;BME280;61343;53.694;9.988;2022-07-06T04:27:14;101890.25;;;13.74;83.97
73143;BME280;61343;53.694;9.988;2022-07-06T04:29:39;101890.25;;;13.74;83.92
73143;BME280;61343;53.694;9.988;2022-07-06T04:32:05;101884.88;;;13.81;83.99
73143;BME280;61343;53.694;9.988;2022-07-06T04:34:30;101884.66;;;13.76;84.50
73143;BME280;61343;53.694;9.988;2022-07-06T04:36:56;101881.56;;;13.79;83.91
73143;BME280;61343;53.694;9.988;2022-07-06T04:39:21;101887.78;;;13.86;83.69
73143;BME280;61343;53.694;9.988;2022-07-06T04:41:46;101880.13;;;13.76;83.33
73143;BME280;61343;53.694;9.988;2022-07-06T04:44:12;101888.81;;;13.78;83.33
73143;BME280;61343;53.694;9.988;2022-07-06T04:46:37;101891.09;;;13.75;83.53
73143;BME280;61343;53.694;9.988;2022-07-06T04:49:02;101890.44;;;13.73;83.84
73143;BME280;61343;53.694;9.988;2022-07-06T04:51:27;101890.66;;;13.71;83.28
73143;BME280;61343;53.694;9.988;2022-07-06T04:53:53;101899.53;;;13.59;84.15
73143;BME280;61343;53.694;9.988;2022-07-06T04:56:18;101902.47;;;13.64;83.71
73143;BME280;61343;53.694;9.988;2022-07-06T04:58:43;101887.34;;;13.63;84.24
73143;BME280;61343;53.694;9.988;2022-07-06T05:01:09;101894.19;;;13.65;84.50
73143;BME280;61343;53.694;9.988;2022-07-06T05:03:34;101890.66;;;13.65;84.89
73143;BME280;61343;53.694;9.988;2022-07-06T05:06:05;101888.19;;;13.76;85.64
73143;BME280;61343;53.694;9.988;2022-07-06T05:08:31;101895.81;;;13.73;84.08
73143;BME280;61343;53.694;9.988;2022-07-06T05:10:56;101903.06;;;13.79;84.06
73143;BME280;61343;53.694;9.988;2022-07-06T05:13:22;101899.16;;;13.75;84.33
73143;BME280;61343;53.694;9.988;2022-07-06T05:15:47;101893.16;;;13.86;84.98
73143;BME280;61343;53.694;9.988;2022-07-06T05:18:12;101900.16;;;13.93;84.89
73143;BME280;61343;53.694;9.988;2022-07-06T05:20:37;101900.59;;;13.97;84.74
73143;BME280;61343;53.694;9.988;2022-07-06T05:23:03;101903.91;;;14.06;85.09
73143;BME280;61343;53.694;9.988;2022-07-06T05:25:28;101910.31;;;14.11;82.96
73143;BME280;61343;53.694;9.988;2022-07-06T05:27:53;101905.78;;;14.05;83.27
73143;BME280;61343;53.694;9.988;2022-07-06T05:30:19;101905.13;;;14.03;83.44
73143;BME280;61343;53.694;9.988;2022-07-06T05:32:44;101904.13;;;14.04;83.04
73143;BME280;61343;53.694;9.988;2022-07-06T05:35:10;101905.56;;;14.00;83.50
73143;BME280;61343;53.694;9.988;2022-07-06T05:37:35;101898.13;;;14.02;84.42
73143;BME280;61343;53.694;9.988;2022-07-06T05:40:00;101906.38;;;14.07;84.71
73143;BME280;61343;53.694;9.988;2022-07-06T05:42:26;101899.56;;;14.05;84.54
73143;BME280;61343;53.694;9.988;2022-07-06T05:44:55;101905.34;;;14.15;83.80
73143;BME280;61343;53.694;9.988;2022-07-06T05:47:20;101903.47;;;14.09;84.11
73143;BME280;61343;53.694;9.988;2022-07-06T05:50:05;101913.00;;;14.11;85.07
73143;BME280;61343;53.694;9.988;2022-07-06T05:52:44;101910.53;;;14.16;84.04
73143;BME280;61343;53.694;9.988;2022-07-06T05:55:11;101914.84;;;14.17;83.08
73143;BME280;61343;53.694;9.988;2022-07-06T05:57:37;101922.09;;;14.23;83.48
73143;BME280;61343;53.694;9.988;2022-07-06T06:00:04;101914.66;;;14.25;84.00
73143;BME280;61343;53.694;9.988;2022-07-06T06:02:40;101913.00;;;14.24;83.64
73143;BME280;61343;53.694;9.988;2022-07-06T06:05:07;101910.09;;;14.26;83.83
73143;BME280;61343;53.694;9.988;2022-07-06T06:07:37;101910.31;;;14.37;82.78
73143;BME280;61343;53.694;9.988;2022-07-06T06:10:05;101912.19;;;14.37;81.52
73143;BME280;61343;53.694;9.988;2022-07-06T06:12:31;101912.38;;;14.29;81.93
73143;BME280;61343;53.694;9.988;2022-07-06T06:14:56;101914.22;;;14.35;81.36
73143;BME280;61343;53.694;9.988;2022-07-06T06:17:21;101919.19;;;14.31;81.38
73143;BME280;61343;53.694;9.988;2022-07-06T06:19:47;101917.34;;;14.38;82.74
73143;BME280;61343;53.694;9.988;2022-07-06T06:22:13;101920.44;;;14.48;84.17
73143;BME280;61343;53.694;9.988;2022-07-06T06:24:38;101918.13;;;14.59;82.11
73143;BME280;61343;53.694;9.988;2022-07-06T06:27:03;101927.25;;;14.58;82.32
73143;BME280;61343;53.694;9.988;2022-07-06T06:29:29;101929.09;;;14.64;82.52
73143;BME280;61343;53.694;9.988;2022-07-06T06:31:54;101928.03;;;14.65;81.02
73143;BME280;61343;53.694;9.988;2022-07-06T06:34:20;101929.94;;;14.64;79.38
73143;BME280;61343;53.694;9.988;2022-07-06T06:36:45;101930.38;;;14.55;80.93
73143;BME280;61343;53.694;9.988;2022-07-06T06:39:10;101927.84;;;14.60;79.66
73143;BME280;61343;53.694;9.988;2022-07-06T06:41:35;101929.13;;;14.57;80.22
73143;BME280;61343;53.694;9.988;2022-07-06T06:44:01;101926.84;;;14.54;79.67
73143;BME280;61343;53.694;9.988;2022-07-06T06:46:26;101925.34;;;14.65;79.98
73143;BME280;61343;53.694;9.988;2022-07-06T06:48:51;101928.22;;;14.76;80.49
73143;BME280;61343;53.694;9.988;2022-07-06T06:51:16;101931.53;;;14.85;80.57
73143;BME280;61343;53.694;9.988;2022-07-06T06:53:42;101932.31;;;14.92;79.73
73143;BME280;61343;53.694;9.988;2022-07-06T06:56:07;101934.41;;;14.90;79.03
73143;BME280;61343;53.694;9.988;2022-07-06T06:58:33;101941.84;;;14.94;79.87
73143;BME280;61343;53.694;9.988;2022-07-06T07:00:59;101943.91;;;14.99;80.54
73143;BME280;61343;53.694;9.988;2022-07-06T07:03:24;101943.66;;;15.00;80.56
73143;BME280;61343;53.694;9.988;2022-07-06T07:05:49;101944.75;;;14.99;80.15
73143;BME280;61343;53.694;9.988;2022-07-06T07:08:15;101943.06;;;15.05;78.89
73143;BME280;61343;53.694;9.988;2022-07-06T07:10:40;101948.00;;;15.08;79.70
73143;BME280;61343;53.694;9.988;2022-07-06T07:13:05;101954.81;;;15.17;80.41
73143;BME280;61343;53.694;9.988;2022-07-06T07:15:31;101956.81;;;15.28;78.85
73143;BME280;61343;53.694;9.988;2022-07-06T07:17:56;101957.59;;;15.35;79.16
73143;BME280;61343;53.694;9.988;2022-07-06T07:20:22;101943.25;;;15.41;79.32
73143;BME280;61343;53.694;9.988;2022-07-06T07:22:47;101947.63;;;15.49;79.00
73143;BME280;61343;53.694;9.988;2022-07-06T07:25:12;101947.03;;;15.40;76.38
73143;BME280;61343;53.694;9.988;2022-07-06T07:27:38;101951.34;;;15.41;78.40
73143;BME280;61343;53.694;9.988;2022-07-06T07:30:04;101949.06;;;15.51;77.67
73143;BME280;61343;53.694;9.988;2022-07-06T07:32:30;101947.44;;;15.44;77.52
73143;BME280;61343;53.694;9.988;2022-07-06T07:34:55;101944.09;;;15.42;77.37
73143;BME280;61343;53.694;9.988;2022-07-06T07:37:20;101948.63;;;15.54;77.49
73143;BME280;61343;53.694;9.988;2022-07-06T07:39:46;101951.56;;;15.46;77.08
73143;BME280;61343;53.694;9.988;2022-07-06T07:42:11;101954.63;;;15.56;75.75
73143;BME280;61343;53.694;9.988;2022-07-06T07:44:36;101962.97;;;15.42;76.99
73143;BME280;61343;53.694;9.988;2022-07-06T07:47:04;101958.81;;;15.52;75.01
73143;BME280;61343;53.694;9.988;2022-07-06T07:49:29;101962.97;;;15.48;76.08
73143;BME280;61343;53.694;9.988;2022-07-06T07:51:55;101957.75;;;15.53;75.76
73143;BME280;61343;53.694;9.988;2022-07-06T07:54:20;101963.06;;;15.67;75.53
73143;BME280;61343;53.694;9.988;2022-07-06T07:56:45;101964.03;;;15.79;74.36
73143;BME280;61343;53.694;9.988;2022-07-06T07:59:11;101956.66;;;15.92;72.02
73143;BME280;61343;53.694;9.988;2022-07-06T08:01:36;101956.00;;;15.97;72.64
73143;BME280;61343;53.694;9.988;2022-07-06T08:04:02;101957.72;;;16.16;73.05
73143;BME280;61343;53.694;9.988;2022-07-06T08:06:27;101949.94;;;16.26;72.25
73143;BME280;61343;53.694;9.988;2022-07-06T08:08:52;101953.84;;;16.30;70.21
73143;BME280;61343;53.694;9.988;2022-07-06T08:11:18;101958.16;;;16.13;69.77
73143;BME280;61343;53.694;9.988;2022-07-06T08:13:43;101960.13;;;16.24;73.35
73143;BME280;61343;53.694;9.988;2022-07-06T08:16:10;101975.34;;;16.43;68.39
73143;BME280;61343;53.694;9.988;2022-07-06T08:18:36;101973.47;;;16.19;69.27
73143;BME280;61343;53.694;9.988;2022-07-06T08:21:02;101970.31;;;15.97;69.92
73143;BME280;61343;53.694;9.988;2022-07-06T08:23:27;101961.53;;;16.08;70.49
73143;BME280;61343;53.694;9.988;2022-07-06T08:25:53;101968.78;;;16.08;69.39
73143;BME280;61343;53.694;9.988;2022-07-06T08:28:19;101975.84;;;16.09;71.94
73143;BME280;61343;53.694;9.988;2022-07-06T08:30:44;101965.53;;;16.24;70.53
73143;BME280;61343;53.694;9.988;2022-07-06T08:33:09;101969.69;;;16.27;71.33
73143;BME280;61343;53.694;9.988;2022-07-06T08:35:35;101980.00;;;16.30;71.03
73143;BME280;61343;53.694;9.988;2022-07-06T08:38:00;101977.16;;;16.25;69.03
73143;BME280;61343;53.694;9.988;2022-07-06T08:40:31;101985.78;;;15.84;71.13
73143;BME280;61343;53.694;9.988;2022-07-06T08:42:57;101995.13;;;15.43;72.99
73143;BME280;61343;53.694;9.988;2022-07-06T08:45:25;101991.97;;;15.02;74.36
73143;BME280;61343;53.694;9.988;2022-07-06T08:47:50;101999.28;;;14.82;76.39
73143;BME280;61343;53.694;9.988;2022-07-06T08:50:19;101988.09;;;14.78;77.64
73143;BME280;61343;53.694;9.988;2022-07-06T08:52:49;101986.63;;;14.82;77.51
73143;BME280;61343;53.694;9.988;2022-07-06T08:55:17;101988.94;;;14.72;76.26
73143;BME280;61343;53.694;9.988;2022-07-06T08:57:46;101992.41;;;14.86;76.74
73143;BME280;61343;53.694;9.988;2022-07-06T09:00:11;101989.91;;;14.91;76.24
73143;BME280;61343;53.694;9.988;2022-07-06T09:02:37;101979.94;;;15.04;75.75
73143;BME280;61343;53.694;9.988;2022-07-06T09:05:04;101992.97;;;15.14;75.35
73143;BME280;61343;53.694;9.988;2022-07-06T09:07:30;101982.75;;;15.29;74.29
73143;BME280;61343;53.694;9.988;2022-07-06T09:09:56;101986.41;;;15.41;73.98
73143;BME280;61343;53.694;9.988;2022-07-06T09:12:26;101984.91;;;15.58;73.32
73143;BME280;61343;53.694;9.988;2022-07-06T09:14:55;101985.03;;;15.70;73.58
73143;BME280;61343;53.694;9.988;2022-07-06T09:17:21;101995.53;;;15.85;72.93
73143;BME280;61343;53.694;9.988;2022-07-06T09:19:46;101990.75;;;15.87;72.18
73143;BME280;61343;53.694;9.988;2022-07-06T09:22:27;101989.69;;;15.88;75.19
73143;BME280;61343;53.694;9.988;2022-07-06T09:25:01;101997.59;;;16.14;70.26
73143;BME280;61343;53.694;9.988;2022-07-06T09:27:26;101992.19;;;16.14;70.33
73143;BME280;61343;53.694;9.988;2022-07-06T09:29:51;101991.91;;;16.22;70.06
73143;BME280;61343;53.694;9.988;2022-07-06T09:32:19;101988.28;;;16.35;67.95
73143;BME280;61343;53.694;9.988;2022-07-06T09:34:46;101996.81;;;16.56;69.21
73143;BME280;61343;53.694;9.988;2022-07-06T09:37:12;101991.63;;;16.80;66.86
73143;BME280;61343;53.694;9.988;2022-07-06T09:39:38;101994.69;;;16.65;66.62
73143;BME280;61343;53.694;9.988;2022-07-06T09:42:06;102003.19;;;16.87;64.44
73143;BME280;61343;53.694;9.988;2022-07-06T09:44:38;102000.63;;;16.92;65.75
73143;BME280;61343;53.694;9.988;2022-07-06T09:47:06;101992.53;;;16.73;66.46
73143;BME280;61343;53.694;9.988;2022-07-06T09:49:32;101992.53;;;16.73;66.26
73143;BME280;61343;53.694;9.988;2022-07-06T09:52:00;101994.00;;;16.45;68.82
73143;BME280;61343;53.694;9.988;2022-07-06T09:54:26;102000.63;;;16.24;68.54
73143;BME280;61343;53.694;9.988;2022-07-06T09:56:53;102005.53;;;16.09;68.71
73143;BME280;61343;53.694;9.988;2022-07-06T09:59:26;101999.81;;;15.92;67.63
73143;BME280;61343;53.694;9.988;2022-07-06T10:01:53;102005.22;;;15.92;66.24
73143;BME280;61343;53.694;9.988;2022-07-06T10:04:20;102002.97;;;15.89;65.56
73143;BME280;61343;53.694;9.988;2022-07-06T10:06:45;102002.75;;;15.91;66.75
73143;BME280;61343;53.694;9.988;2022-07-06T10:09:11;102006.91;;;15.87;67.88
73143;BME280;61343;53.694;9.988;2022-07-06T10:11:42;102014.47;;;15.72;63.56
73143;BME280;61343;53.694;9.988;2022-07-06T10:14:10;102014.44;;;15.47;63.33
73143;BME280;61343;53.694;9.988;2022-07-06T10:16:38;102020.84;;;15.33;63.65
73143;BME280;61343;53.694;9.988;2022-07-06T10:19:06;102004.13;;;15.18;64.26
73143;BME280;61343;53.694;9.988;2022-07-06T10:21:34;102002.25;;;15.25;64.12
73143;BME280;61343;53.694;9.988;2022-07-06T10:24:01;101996.84;;;15.25;64.75
73143;BME280;61343;53.694;9.988;2022-07-06T10:26:27;101994.59;;;15.22;65.77
73143;BME280;61343;53.694;9.988;2022-07-06T10:28:52;101987.47;;;15.34;66.07
73143;BME280;61343;53.694;9.988;2022-07-06T10:31:19;101994.28;;;15.49;65.36
73143;BME280;61343;53.694;9.988;2022-07-06T10:33:46;101989.44;;;15.65;64.79
73143;BME280;61343;53.694;9.988;2022-07-06T10:36:12;101989.34;;;15.78;65.92
73143;BME280;61343;53.694;9.988;2022-07-06T10:38:38;101986.56;;;15.91;63.53
73143;BME280;61343;53.694;9.988;2022-07-06T10:41:05;101981.63;;;16.12;63.66
73143;BME280;61343;53.694;9.988;2022-07-06T10:43:38;101981.13;;;16.22;62.31
73143;BME280;61343;53.694;9.988;2022-07-06T10:46:07;101980.47;;;16.27;62.22
73143;BME280;61343;53.694;9.988;2022-07-06T10:48:38;101974.88;;;16.46;59.63
73143;BME280;61343;53.694;9.988;2022-07-06T10:51:04;101974.88;;;16.46;62.62
73143;BME280;61343;53.694;9.988;2022-07-06T10:53:35;101973.22;;;16.45;62.40
73143;BME280;61343;53.694;9.988;2022-07-06T10:56:05;101968.19;;;16.55;62.34
73143;BME280;61343;53.694;9.988;2022-07-06T11:01:10;101965.03;;;16.58;63.46
73143;BME280;61343;53.694;9.988;2022-07-06T11:03:43;101958.31;;;16.86;63.18
73143;BME280;61343;53.694;9.988;2022-07-06T11:08:48;101957.00;;;17.54;62.06
73143;BME280;61343;53.694;9.988;2022-07-06T11:11:22;101957.09;;;17.77;61.36
73143;BME280;61343;53.694;9.988;2022-07-06T11:16:14;101959.19;;;18.28;59.17
73143;BME280;61343;53.694;9.988;2022-07-06T11:18:41;101954.22;;;18.37;61.41
73143;BME280;61343;53.694;9.988;2022-07-06T11:23:42;101946.81;;;18.67;61.29
73143;BME280;61343;53.694;9.988;2022-07-06T11:26:08;101948.69;;;18.78;58.98
73143;BME280;61343;53.694;9.988;2022-07-06T11:28:34;101958.63;;;18.61;59.22
73143;BME280;61343;53.694;9.988;2022-07-06T11:30:59;101949.63;;;18.26;58.31
73143;BME280;61343;53.694;9.988;2022-07-06T11:33:28;101950.56;;;18.20;59.25
73143;BME280;61343;53.694;9.988;2022-07-06T11:38:43;101951.47;;;17.79;58.85
73143;BME280;61343;53.694;9.988;2022-07-06T11:41:09;101948.84;;;17.72;60.31
73143;BME280;61343;53.694;9.988;2022-07-06T11:43:36;101955.06;;;17.61;59.51
73143;BME280;61343;53.694;9.988;2022-07-06T11:46:03;101949.69;;;17.73;59.12
73143;BME280;61343;53.694;9.988;2022-07-06T11:48:28;101938.66;;;17.86;57.61
73143;BME280;61343;53.694;9.988;2022-07-06T11:51:03;101935.22;;;17.79;58.40
73143;BME280;61343;53.694;9.988;2022-07-06T11:53:29;101942.28;;;17.68;57.83
73143;BME280;61343;53.694;9.988;2022-07-06T11:55:54;101946.94;;;17.61;58.87
73143;BME280;61343;53.694;9.988;2022-07-06T11:58:22;101937.88;;;17.56;58.06
73143;BME280;61343;53.694;9.988;2022-07-06T12:01:23;101943.50;;;17.54;58.59
73143;BME280;61343;53.694;9.988;2022-07-06T12:03:50;101938.28;;;17.71;57.99
73143;BME280;61343;53.694;9.988;2022-07-06T12:06:23;101935.22;;;17.79;56.33
73143;BME280;61343;53.694;9.988;2022-07-06T12:11:26;101925.34;;;17.84;58.18
73143;BME280;61343;53.694;9.988;2022-07-06T12:13:54;101920.88;;;17.78;58.96
73143;BME280;61343;53.694;9.988;2022-07-06T12:16:21;101925.44;;;17.78;57.91
73143;BME280;61343;53.694;9.988;2022-07-06T12:18:49;101915.94;;;17.99;56.73
73143;BME280;61343;53.694;9.988;2022-07-06T12:21:17;101919.72;;;18.44;54.83
73143;BME280;61343;53.694;9.988;2022-07-06T12:23:46;101911.34;;;18.80;53.80
73143;BME280;61343;53.694;9.988;2022-07-06T12:26:13;101913.59;;;19.12;55.14
73143;BME280;61343;53.694;9.988;2022-07-06T12:28:39;101912.72;;;19.23;54.25
73143;BME280;61343;53.694;9.988;2022-07-06T12:31:05;101919.59;;;19.14;55.33
73143;BME280;61343;53.694;9.988;2022-07-06T12:33:31;101917.59;;;19.37;54.18
73143;BME280;61343;53.694;9.988;2022-07-06T12:35:57;101899.44;;;19.38;52.53
73143;BME280;61343;53.694;9.988;2022-07-06T12:38:32;101904.19;;;19.31;51.61
73143;BME280;61343;53.694;9.988;2022-07-06T12:40:58;101905.00;;;19.31;52.55
73143;BME280;61343;53.694;9.988;2022-07-06T12:43:36;101895.09;;;19.65;53.19
73143;BME280;61343;53.694;9.988;2022-07-06T12:46:30;101908.78;;;19.42;52.14
73143;BME280;61343;53.694;9.988;2022-07-06T12:48:57;101909.09;;;19.17;52.57
73143;BME280;61343;53.694;9.988;2022-07-06T12:51:23;101900.66;;;19.42;53.11
73143;BME280;61343;53.694;9.988;2022-07-06T12:53:48;101899.94;;;19.35;52.84
73143;BME280;61343;53.694;9.988;2022-07-06T12:56:14;101910.75;;;19.18;52.43
73143;BME280;61343;53.694;9.988;2022-07-06T12:58:55;101910.75;;;18.78;53.49
73143;BME280;61343;53.694;9.988;2022-07-06T13:01:20;101900.47;;;18.92;54.13
73143;BME280;61343;53.694;9.988;2022-07-06T13:03:45;101910.88;;;19.12;55.29